sensor_id;sensor_type;location;lat;lon;timestamp;P1;durP1;ratioP1;P2;durP2;ratioP2
44842;SDS011;31884;52.538;13.820;2023-02-22T00:00:18;17.45;;;6.10;;
44842;SDS011;31884;52.538;13.820;2023-02-22T00:02:53;18.30;;;6.55;;
44842;SDS011;31884;52.538;13.820;2023-02-22T00:05:24;15.98;;;6.13;;
44842;SDS011;31884;52.538;13.820;2023-02-22T00:07:50;15.48;;;6.45;;
44842;SDS011;31884;52.538;13.820;2023-02-22T00:10:16;24.33;;;6.65;;
44842;SDS011;31884;52.538;13.820;2023-02-22T00:12:44;15.50;;;6.20;;
44842;SDS011;31884;52.538;13.820;2023-02-22T00:15:12;18.80;;;7.68;;
44842;SDS011;31884;52.538;13.820;2023-02-22T00:17:39;21.98;;;7.55;;
44842;SDS011;31884;52.538;13.820;2023-02-22T00:20:05;26.23;;;7.53;;
44842;SDS011;31884;52.538;13.820;2023-02-22T00:22:31;22.30;;;7.72;;
44842;SDS011;31884;52.538;13.820;2023-02-22T00:24:57;28.30;;;8.63;;
44842;SDS011;31884;52.538;13.820;2023-02-22T00:27:23;28.23;;;8.00;;
44842;SDS011;31884;52.538;13.820;2023-02-22T00:29:49;22.50;;;7.93;;
44842;SDS011;31884;52.538;13.820;2023-02-22T00:32:14;24.27;;;8.07;;
44842;SDS011;31884;52.538;13.820;2023-02-22T00:34:40;22.05;;;7.80;;
44842;SDS011;31884;52.538;13.820;2023-02-22T00:37:07;27.08;;;7.97;;
44842;SDS011;31884;52.538;13.820;2023-02-22T00:39:34;26.30;;;7.95;;
44842;SDS011;31884;52.538;13.820;2023-02-22T00:41:59;22.60;;;7.63;;
44842;SDS011;31884;52.538;13.820;2023-02-22T00:44:25;20.73;;;7.07;;
44842;SDS011;31884;52.538;13.820;2023-02-22T00:46:51;18.75;;;7.60;;
44842;SDS011;31884;52.538;13.820;2023-02-22T00:49:17;19.08;;;7.55;;
44842;SDS011;31884;52.538;13.820;2023-02-22T00:51:43;28.73;;;8.93;;
44842;SDS011;31884;52.538;13.820;2023-02-22T00:54:08;27.05;;;8.40;;
44842;SDS011;31884;52.538;13.820;2023-02-22T00:56:34;19.95;;;7.93;;
44842;SDS011;31884;52.538;13.820;2023-02-22T00:59:01;23.35;;;7.68;;
44842;SDS011;31884;52.538;13.820;2023-02-22T01:01:29;18.58;;;7.72;;
44842;SDS011;31884;52.538;13.820;2023-02-22T01:03:55;26.13;;;8.82;;
44842;SDS011;31884;52.538;13.820;2023-02-22T01:06:20;27.80;;;8.15;;
44842;SDS011;31884;52.538;13.820;2023-02-22T01:08:47;22.30;;;7.93;;
44842;SDS011;31884;52.538;13.820;2023-02-22T01:11:13;21.60;;;7.97;;
44842;SDS011;31884;52.538;13.820;2023-02-22T01:13:40;24.27;;;8.38;;
44842;SDS011;31884;52.538;13.820;2023-02-22T01:16:05;22.15;;;8.52;;
44842;SDS011;31884;52.538;13.820;2023-02-22T01:18:32;21.77;;;8.60;;
44842;SDS011;31884;52.538;13.820;2023-02-22T01:20:59;22.27;;;8.35;;
44842;SDS011;31884;52.538;13.820;2023-02-22T01:23:25;25.10;;;8.43;;
44842;SDS011;31884;52.538;13.820;2023-02-22T01:25:51;25.52;;;9.10;;
44842;SDS011;31884;52.538;13.820;2023-02-22T01:28:16;21.98;;;8.52;;
44842;SDS011;31884;52.538;13.820;2023-02-22T01:30:42;19.10;;;6.93;;
44842;SDS011;31884;52.538;13.820;2023-02-22T01:33:08;23.55;;;8.43;;
44842;SDS011;31884;52.538;13.820;2023-02-22T01:35:34;17.67;;;7.00;;
44842;SDS011;31884;52.538;13.820;2023-02-22T01:38:02;23.08;;;8.35;;
44842;SDS011;31884;52.538;13.820;2023-02-22T01:40:32;16.75;;;6.88;;
44842;SDS011;31884;52.538;13.820;2023-02-22T01:43:00;20.75;;;6.57;;
44842;SDS011;31884;52.538;13.820;2023-02-22T01:50:33;20.38;;;7.10;;
44842;SDS011;31884;52.538;13.820;2023-02-22T01:53:02;26.65;;;8.38;;
44842;SDS011;31884;52.538;13.820;2023-02-22T01:55:29;20.35;;;8.27;;
44842;SDS011;31884;52.538;13.820;2023-02-22T01:57:57;19.63;;;7.68;;
44842;SDS011;31884;52.538;13.820;2023-02-22T02:00:22;17.40;;;6.80;;
44842;SDS011;31884;52.538;13.820;2023-02-22T02:02:53;31.33;;;7.70;;
44842;SDS011;31884;52.538;13.820;2023-02-22T02:05:27;18.20;;;6.93;;
44842;SDS011;31884;52.538;13.820;2023-02-22T02:07:56;19.88;;;7.32;;
44842;SDS011;31884;52.538;13.820;2023-02-22T02:10:26;15.43;;;6.90;;
44842;SDS011;31884;52.538;13.820;2023-02-22T02:12:52;24.77;;;6.80;;
44842;SDS011;31884;52.538;13.820;2023-02-22T02:15:22;16.75;;;5.93;;
44842;SDS011;31884;52.538;13.820;2023-02-22T02:17:56;20.75;;;6.00;;
44842;SDS011;31884;52.538;13.820;2023-02-22T02:37:27;16.95;;;4.82;;
44842;SDS011;31884;52.538;13.820;2023-02-22T02:40:05;23.30;;;6.13;;
44842;SDS011;31884;52.538;13.820;2023-02-22T02:42:59;15.13;;;5.95;;
44842;SDS011;31884;52.538;13.820;2023-02-22T02:45:36;20.08;;;6.07;;
44842;SDS011;31884;52.538;13.820;2023-02-22T02:48:10;19.35;;;5.85;;
44842;SDS011;31884;52.538;13.820;2023-02-22T02:50:46;13.90;;;5.15;;
44842;SDS011;31884;52.538;13.820;2023-02-22T02:53:14;12.20;;;5.20;;
44842;SDS011;31884;52.538;13.820;2023-02-22T02:55:45;19.05;;;7.07;;
44842;SDS011;31884;52.538;13.820;2023-02-22T02:58:15;11.95;;;5.30;;
44842;SDS011;31884;52.538;13.820;2023-02-22T03:00:43;15.82;;;5.70;;
44842;SDS011;31884;52.538;13.820;2023-02-22T03:03:15;17.17;;;4.93;;
44842;SDS011;31884;52.538;13.820;2023-02-22T03:09:14;13.32;;;5.20;;
44842;SDS011;31884;52.538;13.820;2023-02-22T03:12:16;18.23;;;5.63;;
44842;SDS011;31884;52.538;13.820;2023-02-22T03:17:36;17.67;;;5.05;;
44842;SDS011;31884;52.538;13.820;2023-02-22T03:20:29;16.38;;;5.22;;
44842;SDS011;31884;52.538;13.820;2023-02-22T03:23:31;12.88;;;4.40;;
44842;SDS011;31884;52.538;13.820;2023-02-22T03:26:10;15.73;;;4.47;;
44842;SDS011;31884;52.538;13.820;2023-02-22T03:28:39;16.98;;;5.07;;
44842;SDS011;31884;52.538;13.820;2023-02-22T03:31:09;14.52;;;5.82;;
44842;SDS011;31884;52.538;13.820;2023-02-22T03:33:52;15.25;;;5.15;;
44842;SDS011;31884;52.538;13.820;2023-02-22T03:36:23;11.32;;;4.18;;
44842;SDS011;31884;52.538;13.820;2023-02-22T03:38:53;12.15;;;4.40;;
44842;SDS011;31884;52.538;13.820;2023-02-22T03:41:22;13.15;;;4.75;;
44842;SDS011;31884;52.538;13.820;2023-02-22T03:43:50;16.70;;;5.20;;
44842;SDS011;31884;52.538;13.820;2023-02-22T03:46:29;14.35;;;5.13;;
44842;SDS011;31884;52.538;13.820;2023-02-22T03:49:09;17.25;;;5.60;;
44842;SDS011;31884;52.538;13.820;2023-02-22T03:51:38;15.70;;;5.25;;
44842;SDS011;31884;52.538;13.820;2023-02-22T03:54:04;18.23;;;4.97;;
44842;SDS011;31884;52.538;13.820;2023-02-22T03:56:32;13.25;;;4.45;;
44842;SDS011;31884;52.538;13.820;2023-02-22T03:59:02;14.35;;;4.47;;
44842;SDS011;31884;52.538;13.820;2023-02-22T04:01:30;19.27;;;4.70;;
44842;SDS011;31884;52.538;13.820;2023-02-22T04:03:55;12.43;;;4.05;;
44842;SDS011;31884;52.538;13.820;2023-02-22T04:06:21;16.45;;;4.40;;
44842;SDS011;31884;52.538;13.820;2023-02-22T04:08:46;15.25;;;3.63;;
44842;SDS011;31884;52.538;13.820;2023-02-22T04:11:12;22.40;;;5.00;;
44842;SDS011;31884;52.538;13.820;2023-02-22T04:13:37;15.82;;;6.22;;
44842;SDS011;31884;52.538;13.820;2023-02-22T04:16:03;21.27;;;4.90;;
44842;SDS011;31884;52.538;13.820;2023-02-22T04:18:28;13.40;;;4.70;;
44842;SDS011;31884;52.538;13.820;2023-02-22T04:20:54;11.43;;;4.50;;
44842;SDS011;31884;52.538;13.820;2023-02-22T04:23:19;8.00;;;3.58;;
44842;SDS011;31884;52.538;13.820;2023-02-22T04:25:45;13.50;;;4.38;;
44842;SDS011;31884;52.538;13.820;2023-02-22T04:28:11;10.70;;;4.30;;
44842;SDS011;31884;52.538;13.820;2023-02-22T04:30:36;20.85;;;4.50;;
44842;SDS011;31884;52.538;13.820;2023-02-22T04:33:02;15.43;;;3.97;;
44842;SDS011;31884;52.538;13.820;2023-02-22T04:35:27;13.20;;;4.18;;
44842;SDS011;31884;52.538;13.820;2023-02-22T04:37:53;21.45;;;5.97;;
44842;SDS011;31884;52.538;13.820;2023-02-22T04:40:18;14.35;;;4.13;;
44842;SDS011;31884;52.538;13.820;2023-02-22T04:42:44;12.93;;;4.47;;
44842;SDS011;31884;52.538;13.820;2023-02-22T04:45:09;15.55;;;5.85;;
44842;SDS011;31884;52.538;13.820;2023-02-22T04:47:36;27.50;;;8.55;;
44842;SDS011;31884;52.538;13.820;2023-02-22T04:50:02;21.33;;;6.93;;
44842;SDS011;31884;52.538;13.820;2023-02-22T04:52:29;20.27;;;5.68;;
44842;SDS011;31884;52.538;13.820;2023-02-22T04:54:55;16.75;;;5.15;;
44842;SDS011;31884;52.538;13.820;2023-02-22T04:57:21;19.25;;;6.93;;
44842;SDS011;31884;52.538;13.820;2023-02-22T04:59:47;21.92;;;6.40;;
44842;SDS011;31884;52.538;13.820;2023-02-22T05:02:12;25.65;;;7.93;;
44842;SDS011;31884;52.538;13.820;2023-02-22T05:04:38;13.85;;;4.95;;
44842;SDS011;31884;52.538;13.820;2023-02-22T05:07:03;13.65;;;4.25;;
44842;SDS011;31884;52.538;13.820;2023-02-22T05:09:29;23.17;;;6.82;;
44842;SDS011;31884;52.538;13.820;2023-02-22T05:11:54;20.60;;;6.35;;
44842;SDS011;31884;52.538;13.820;2023-02-22T05:14:20;22.25;;;6.95;;
44842;SDS011;31884;52.538;13.820;2023-02-22T05:16:47;22.33;;;6.72;;
44842;SDS011;31884;52.538;13.820;2023-02-22T05:19:13;12.93;;;5.00;;
44842;SDS011;31884;52.538;13.820;2023-02-22T05:21:39;22.65;;;8.00;;
44842;SDS011;31884;52.538;13.820;2023-02-22T05:24:05;19.45;;;5.93;;
44842;SDS011;31884;52.538;13.820;2023-02-22T05:26:31;18.75;;;7.72;;
44842;SDS011;31884;52.538;13.820;2023-02-22T05:28:56;16.42;;;5.68;;
44842;SDS011;31884;52.538;13.820;2023-02-22T05:31:21;19.40;;;7.35;;
44842;SDS011;31884;52.538;13.820;2023-02-22T05:33:47;19.42;;;6.32;;
44842;SDS011;31884;52.538;13.820;2023-02-22T05:36:12;25.15;;;6.00;;
44842;SDS011;31884;52.538;13.820;2023-02-22T05:38:38;19.67;;;5.47;;
44842;SDS011;31884;52.538;13.820;2023-02-22T05:41:07;12.25;;;4.85;;
44842;SDS011;31884;52.538;13.820;2023-02-22T05:43:34;15.32;;;4.78;;
44842;SDS011;31884;52.538;13.820;2023-02-22T05:46:00;12.48;;;4.63;;
44842;SDS011;31884;52.538;13.820;2023-02-22T05:48:25;22.67;;;4.82;;
44842;SDS011;31884;52.538;13.820;2023-02-22T05:50:51;11.25;;;4.43;;
44842;SDS011;31884;52.538;13.820;2023-02-22T05:53:16;14.82;;;4.40;;
44842;SDS011;31884;52.538;13.820;2023-02-22T05:55:42;13.32;;;3.92;;
44842;SDS011;31884;52.538;13.820;2023-02-22T05:58:07;22.00;;;5.72;;
44842;SDS011;31884;52.538;13.820;2023-02-22T06:00:33;15.32;;;4.50;;
44842;SDS011;31884;52.538;13.820;2023-02-22T06:02:59;17.73;;;4.97;;
44842;SDS011;31884;52.538;13.820;2023-02-22T06:05:27;16.55;;;4.38;;
44842;SDS011;31884;52.538;13.820;2023-02-22T06:07:53;14.77;;;4.20;;
44842;SDS011;31884;52.538;13.820;2023-02-22T06:10:19;10.70;;;3.08;;
44842;SDS011;31884;52.538;13.820;2023-02-22T06:12:45;14.82;;;4.35;;
44842;SDS011;31884;52.538;13.820;2023-02-22T06:15:13;15.35;;;4.50;;
44842;SDS011;31884;52.538;13.820;2023-02-22T06:17:42;11.20;;;3.63;;
44842;SDS011;31884;52.538;13.820;2023-02-22T06:20:12;22.88;;;4.63;;
44842;SDS011;31884;52.538;13.820;2023-02-22T06:22:39;14.85;;;4.60;;
44842;SDS011;31884;52.538;13.820;2023-02-22T06:25:05;17.58;;;5.20;;
44842;SDS011;31884;52.538;13.820;2023-02-22T06:27:32;21.42;;;5.70;;
44842;SDS011;31884;52.538;13.820;2023-02-22T06:29:58;14.27;;;4.25;;
44842;SDS011;31884;52.538;13.820;2023-02-22T06:32:24;19.33;;;4.63;;
44842;SDS011;31884;52.538;13.820;2023-02-22T06:34:50;15.70;;;5.07;;
44842;SDS011;31884;52.538;13.820;2023-02-22T06:37:15;12.25;;;4.80;;
44842;SDS011;31884;52.538;13.820;2023-02-22T06:39:41;18.20;;;4.70;;
44842;SDS011;31884;52.538;13.820;2023-02-22T06:42:06;19.98;;;5.68;;
44842;SDS011;31884;52.538;13.820;2023-02-22T06:44:32;15.63;;;4.30;;
44842;SDS011;31884;52.538;13.820;2023-02-22T06:46:57;13.93;;;4.05;;
44842;SDS011;31884;52.538;13.820;2023-02-22T06:49:23;13.48;;;3.72;;
44842;SDS011;31884;52.538;13.820;2023-02-22T06:51:51;9.13;;;3.63;;
44842;SDS011;31884;52.538;13.820;2023-02-22T06:54:16;11.70;;;3.53;;
44842;SDS011;31884;52.538;13.820;2023-02-22T06:56:42;13.95;;;3.92;;
44842;SDS011;31884;52.538;13.820;2023-02-22T06:59:07;9.48;;;3.88;;
44842;SDS011;31884;52.538;13.820;2023-02-22T07:01:33;16.88;;;5.13;;
44842;SDS011;31884;52.538;13.820;2023-02-22T07:03:58;17.25;;;5.80;;
44842;SDS011;31884;52.538;13.820;2023-02-22T07:06:24;21.27;;;6.63;;
44842;SDS011;31884;52.538;13.820;2023-02-22T07:08:50;24.10;;;6.95;;
44842;SDS011;31884;52.538;13.820;2023-02-22T07:11:15;20.70;;;6.38;;
44842;SDS011;31884;52.538;13.820;2023-02-22T07:13:41;15.88;;;5.60;;
44842;SDS011;31884;52.538;13.820;2023-02-22T07:16:07;21.67;;;6.20;;
44842;SDS011;31884;52.538;13.820;2023-02-22T07:18:32;18.67;;;4.57;;
44842;SDS011;31884;52.538;13.820;2023-02-22T07:20:58;19.02;;;5.30;;
44842;SDS011;31884;52.538;13.820;2023-02-22T07:23:23;18.73;;;4.85;;
44842;SDS011;31884;52.538;13.820;2023-02-22T07:25:49;13.65;;;4.38;;
44842;SDS011;31884;52.538;13.820;2023-02-22T07:28:15;11.73;;;4.57;;
44842;SDS011;31884;52.538;13.820;2023-02-22T07:30:40;19.85;;;4.88;;
44842;SDS011;31884;52.538;13.820;2023-02-22T07:33:08;18.40;;;4.78;;
44842;SDS011;31884;52.538;13.820;2023-02-22T07:35:35;13.82;;;4.65;;
44842;SDS011;31884;52.538;13.820;2023-02-22T07:38:03;21.75;;;5.03;;
44842;SDS011;31884;52.538;13.820;2023-02-22T07:40:32;15.15;;;4.85;;
44842;SDS011;31884;52.538;13.820;2023-02-22T07:43:02;20.58;;;5.38;;
44842;SDS011;31884;52.538;13.820;2023-02-22T07:45:30;21.23;;;4.78;;
44842;SDS011;31884;52.538;13.820;2023-02-22T07:47:58;20.58;;;4.93;;
44842;SDS011;31884;52.538;13.820;2023-02-22T07:50:26;14.43;;;4.65;;
44842;SDS011;31884;52.538;13.820;2023-02-22T07:52:55;16.45;;;4.55;;
44842;SDS011;31884;52.538;13.820;2023-02-22T07:55:22;13.45;;;4.22;;
44842;SDS011;31884;52.538;13.820;2023-02-22T07:57:50;15.32;;;4.72;;
44842;SDS011;31884;52.538;13.820;2023-02-22T08:00:21;18.83;;;4.50;;
44842;SDS011;31884;52.538;13.820;2023-02-22T08:02:49;16.27;;;4.18;;
44842;SDS011;31884;52.538;13.820;2023-02-22T08:05:14;13.25;;;4.15;;
44842;SDS011;31884;52.538;13.820;2023-02-22T08:07:40;14.93;;;4.60;;
44842;SDS011;31884;52.538;13.820;2023-02-22T08:10:07;16.38;;;4.30;;
44842;SDS011;31884;52.538;13.820;2023-02-22T08:12:41;17.52;;;4.60;;
44842;SDS011;31884;52.538;13.820;2023-02-22T08:15:08;13.85;;;4.20;;
44842;SDS011;31884;52.538;13.820;2023-02-22T08:17:39;13.75;;;3.20;;
44842;SDS011;31884;52.538;13.820;2023-02-22T08:20:04;14.63;;;4.00;;
44842;SDS011;31884;52.538;13.820;2023-02-22T08:22:30;23.75;;;4.88;;
44842;SDS011;31884;52.538;13.820;2023-02-22T08:24:55;19.50;;;4.82;;
44842;SDS011;31884;52.538;13.820;2023-02-22T08:27:22;19.60;;;4.72;;
44842;SDS011;31884;52.538;13.820;2023-02-22T08:29:49;16.13;;;4.00;;
44842;SDS011;31884;52.538;13.820;2023-02-22T08:32:15;26.48;;;5.28;;
44842;SDS011;31884;52.538;13.820;2023-02-22T08:34:41;20.33;;;5.38;;
44842;SDS011;31884;52.538;13.820;2023-02-22T08:37:07;17.58;;;3.40;;
44842;SDS011;31884;52.538;13.820;2023-02-22T08:39:32;11.70;;;3.28;;
44842;SDS011;31884;52.538;13.820;2023-02-22T08:41:57;13.68;;;3.85;;
44842;SDS011;31884;52.538;13.820;2023-02-22T08:44:23;13.23;;;3.15;;
44842;SDS011;31884;52.538;13.820;2023-02-22T08:46:48;11.52;;;2.65;;
44842;SDS011;31884;52.538;13.820;2023-02-22T08:49:15;11.98;;;2.92;;
44842;SDS011;31884;52.538;13.820;2023-02-22T08:51:41;15.20;;;4.00;;
44842;SDS011;31884;52.538;13.820;2023-02-22T08:54:07;18.52;;;4.00;;
44842;SDS011;31884;52.538;13.820;2023-02-22T08:56:32;13.27;;;3.13;;
44842;SDS011;31884;52.538;13.820;2023-02-22T08:58:58;16.40;;;3.38;;
44842;SDS011;31884;52.538;13.820;2023-02-22T09:01:23;10.23;;;2.72;;
44842;SDS011;31884;52.538;13.820;2023-02-22T09:03:49;17.70;;;3.17;;
44842;SDS011;31884;52.538;13.820;2023-02-22T09:06:16;13.30;;;3.10;;
44842;SDS011;31884;52.538;13.820;2023-02-22T09:08:42;22.92;;;3.97;;
44842;SDS011;31884;52.538;13.820;2023-02-22T09:11:08;13.43;;;2.90;;
44842;SDS011;31884;52.538;13.820;2023-02-22T09:13:33;15.77;;;3.55;;
44842;SDS011;31884;52.538;13.820;2023-02-22T09:15:59;15.90;;;3.15;;
44842;SDS011;31884;52.538;13.820;2023-02-22T09:18:25;15.35;;;3.15;;
44842;SDS011;31884;52.538;13.820;2023-02-22T09:20:51;17.77;;;3.30;;
44842;SDS011;31884;52.538;13.820;2023-02-22T09:23:17;10.10;;;2.60;;
44842;SDS011;31884;52.538;13.820;2023-02-22T09:25:45;16.63;;;4.03;;
44842;SDS011;31884;52.538;13.820;2023-02-22T09:28:11;15.55;;;3.50;;
44842;SDS011;31884;52.538;13.820;2023-02-22T09:30:36;12.32;;;3.35;;
44842;SDS011;31884;52.538;13.820;2023-02-22T09:33:04;14.13;;;3.17;;
44842;SDS011;31884;52.538;13.820;2023-02-22T09:35:33;13.02;;;2.80;;
44842;SDS011;31884;52.538;13.820;2023-02-22T09:38:00;14.23;;;3.58;;
44842;SDS011;31884;52.538;13.820;2023-02-22T09:40:27;15.52;;;3.65;;
44842;SDS011;31884;52.538;13.820;2023-02-22T09:43:04;19.15;;;3.70;;
44842;SDS011;31884;52.538;13.820;2023-02-22T09:48:21;18.48;;;4.38;;
44842;SDS011;31884;52.538;13.820;2023-02-22T09:50:46;17.92;;;3.65;;
44842;SDS011;31884;52.538;13.820;2023-02-22T09:53:22;12.55;;;3.30;;
44842;SDS011;31884;52.538;13.820;2023-02-22T09:55:53;24.27;;;4.53;;
44842;SDS011;31884;52.538;13.820;2023-02-22T09:58:27;22.65;;;3.67;;
44842;SDS011;31884;52.538;13.820;2023-02-22T10:01:09;14.52;;;3.28;;
44842;SDS011;31884;52.538;13.820;2023-02-22T10:06:43;20.17;;;3.92;;
44842;SDS011;31884;52.538;13.820;2023-02-22T10:09:26;12.55;;;2.75;;
44842;SDS011;31884;52.538;13.820;2023-02-22T10:11:56;12.98;;;3.28;;
44842;SDS011;31884;52.538;13.820;2023-02-22T10:14:46;15.77;;;3.17;;
44842;SDS011;31884;52.538;13.820;2023-02-22T10:17:39;15.55;;;3.10;;
44842;SDS011;31884;52.538;13.820;2023-02-22T10:25:44;12.73;;;3.42;;
44842;SDS011;31884;52.538;13.820;2023-02-22T10:28:19;9.13;;;2.35;;
44842;SDS011;31884;52.538;13.820;2023-02-22T10:30:53;15.73;;;3.10;;
44842;SDS011;31884;52.538;13.820;2023-02-22T10:33:23;19.15;;;3.65;;
44842;SDS011;31884;52.538;13.820;2023-02-22T10:35:54;20.83;;;3.30;;
44842;SDS011;31884;52.538;13.820;2023-02-22T10:38:24;13.48;;;3.90;;
44842;SDS011;31884;52.538;13.820;2023-02-22T10:41:00;18.10;;;3.13;;
44842;SDS011;31884;52.538;13.820;2023-02-22T10:43:32;14.20;;;3.30;;
44842;SDS011;31884;52.538;13.820;2023-02-22T10:46:01;13.80;;;2.72;;
44842;SDS011;31884;52.538;13.820;2023-02-22T10:48:29;12.18;;;2.75;;
44842;SDS011;31884;52.538;13.820;2023-02-22T10:50:59;11.68;;;2.60;;
44842;SDS011;31884;52.538;13.820;2023-02-22T10:53:26;13.95;;;2.60;;
44842;SDS011;31884;52.538;13.820;2023-02-22T10:56:08;13.98;;;3.58;;
44842;SDS011;31884;52.538;13.820;2023-02-22T10:58:57;12.88;;;2.95;;
44842;SDS011;31884;52.538;13.820;2023-02-22T11:01:29;15.15;;;2.53;;
44842;SDS011;31884;52.538;13.820;2023-02-22T11:06:31;13.50;;;3.47;;
44842;SDS011;31884;52.538;13.820;2023-02-22T11:09:30;18.73;;;4.32;;
44842;SDS011;31884;52.538;13.820;2023-02-22T11:11:50;17.42;;;3.65;;
44842;SDS011;31884;52.538;13.820;2023-02-22T11:14:32;13.57;;;3.00;;
44842;SDS011;31884;52.538;13.820;2023-02-22T11:16:58;18.50;;;3.38;;
44842;SDS011;31884;52.538;13.820;2023-02-22T11:19:30;15.07;;;3.67;;
44842;SDS011;31884;52.538;13.820;2023-02-22T11:24:33;18.50;;;4.20;;
44842;SDS011;31884;52.538;13.820;2023-02-22T11:27:08;13.02;;;2.38;;
44842;SDS011;31884;52.538;13.820;2023-02-22T11:29:47;13.77;;;2.97;;
44842;SDS011;31884;52.538;13.820;2023-02-22T11:32:15;18.42;;;3.30;;
44842;SDS011;31884;52.538;13.820;2023-02-22T11:34:45;11.90;;;2.60;;
44842;SDS011;31884;52.538;13.820;2023-02-22T11:37:31;12.60;;;3.22;;
44842;SDS011;31884;52.538;13.820;2023-02-22T11:40:04;8.65;;;2.30;;
44842;SDS011;31884;52.538;13.820;2023-02-22T11:42:46;11.52;;;2.83;;
44842;SDS011;31884;52.538;13.820;2023-02-22T11:47:45;11.75;;;3.35;;
44842;SDS011;31884;52.538;13.820;2023-02-22T11:50:52;16.65;;;3.42;;
44842;SDS011;31884;52.538;13.820;2023-02-22T11:56:39;18.73;;;3.45;;
44842;SDS011;31884;52.538;13.820;2023-02-22T11:59:15;12.57;;;2.72;;
44842;SDS011;31884;52.538;13.820;2023-02-22T12:04:25;12.30;;;3.50;;
44842;SDS011;31884;52.538;13.820;2023-02-22T12:07:21;13.27;;;3.17;;
44842;SDS011;31884;52.538;13.820;2023-02-22T12:18:28;15.02;;;3.45;;
44842;SDS011;31884;52.538;13.820;2023-02-22T12:21:06;20.20;;;4.20;;
44842;SDS011;31884;52.538;13.820;2023-02-22T12:24:03;14.23;;;3.72;;
44842;SDS011;31884;52.538;13.820;2023-02-22T12:26:34;10.98;;;3.25;;
44842;SDS011;31884;52.538;13.820;2023-02-22T12:29:05;16.63;;;3.50;;
44842;SDS011;31884;52.538;13.820;2023-02-22T12:31:44;10.65;;;3.15;;
44842;SDS011;31884;52.538;13.820;2023-02-22T12:36:46;14.00;;;3.10;;
44842;SDS011;31884;52.538;13.820;2023-02-22T12:39:32;16.00;;;3.90;;
44842;SDS011;31884;52.538;13.820;2023-02-22T12:42:14;11.90;;;3.30;;
44842;SDS011;31884;52.538;13.820;2023-02-22T12:44:45;11.45;;;4.40;;
44842;SDS011;31884;52.538;13.820;2023-02-22T12:47:18;12.07;;;3.38;;
44842;SDS011;31884;52.538;13.820;2023-02-22T12:49:57;13.50;;;3.65;;
44842;SDS011;31884;52.538;13.820;2023-02-22T12:52:35;11.93;;;3.47;;
44842;SDS011;31884;52.538;13.820;2023-02-22T12:55:12;19.20;;;3.63;;
44842;SDS011;31884;52.538;13.820;2023-02-22T12:57:52;15.77;;;4.13;;
44842;SDS011;31884;52.538;13.820;2023-02-22T13:00:27;17.02;;;3.72;;
44842;SDS011;31884;52.538;13.820;2023-02-22T13:03:46;13.13;;;3.28;;
44842;SDS011;31884;52.538;13.820;2023-02-22T13:05:59;8.88;;;3.05;;
44842;SDS011;31884;52.538;13.820;2023-02-22T13:08:38;14.75;;;3.65;;
44842;SDS011;31884;52.538;13.820;2023-02-22T13:11:16;13.35;;;3.60;;
44842;SDS011;31884;52.538;13.820;2023-02-22T13:19:25;19.75;;;3.60;;
44842;SDS011;31884;52.538;13.820;2023-02-22T13:22:02;9.38;;;3.10;;
44842;SDS011;31884;52.538;13.820;2023-02-22T13:24:36;13.93;;;3.97;;
44842;SDS011;31884;52.538;13.820;2023-02-22T13:27:19;11.43;;;3.50;;
44842;SDS011;31884;52.538;13.820;2023-02-22T13:29:51;14.60;;;3.63;;
44842;SDS011;31884;52.538;13.820;2023-02-22T13:35:40;17.05;;;3.72;;
44842;SDS011;31884;52.538;13.820;2023-02-22T13:50:01;13.48;;;3.25;;
44842;SDS011;31884;52.538;13.820;2023-02-22T13:52:40;11.45;;;2.97;;
44842;SDS011;31884;52.538;13.820;2023-02-22T13:55:14;13.73;;;3.60;;
44842;SDS011;31884;52.538;13.820;2023-02-22T13:57:51;17.85;;;3.85;;
44842;SDS011;31884;52.538;13.820;2023-02-22T14:00:39;16.88;;;3.45;;
44842;SDS011;31884;52.538;13.820;2023-02-22T14:08:05;11.80;;;2.88;;
44842;SDS011;31884;52.538;13.820;2023-02-22T14:13:22;13.45;;;2.58;;
44842;SDS011;31884;52.538;13.820;2023-02-22T14:18:24;11.40;;;2.83;;
44842;SDS011;31884;52.538;13.820;2023-02-22T14:21:06;12.10;;;2.60;;
44842;SDS011;31884;52.538;13.820;2023-02-22T14:26:15;14.18;;;3.08;;
44842;SDS011;31884;52.538;13.820;2023-02-22T14:31:32;12.65;;;3.05;;
44842;SDS011;31884;52.538;13.820;2023-02-22T14:34:11;12.85;;;2.88;;
44842;SDS011;31884;52.538;13.820;2023-02-22T14:42:02;12.85;;;3.20;;
44842;SDS011;31884;52.538;13.820;2023-02-22T14:55:36;7.80;;;1.50;;
44842;SDS011;31884;52.538;13.820;2023-02-22T14:58:22;11.55;;;2.03;;
44842;SDS011;31884;52.538;13.820;2023-02-22T15:00:53;9.85;;;1.95;;
44842;SDS011;31884;52.538;13.820;2023-02-22T15:05:46;11.38;;;2.38;;
44842;SDS011;31884;52.538;13.820;2023-02-22T15:08:13;8.95;;;2.58;;
44842;SDS011;31884;52.538;13.820;2023-02-22T15:10:45;6.93;;;1.60;;
44842;SDS011;31884;52.538;13.820;2023-02-22T15:13:14;10.82;;;2.00;;
44842;SDS011;31884;52.538;13.820;2023-02-22T15:15:45;8.68;;;2.00;;
44842;SDS011;31884;52.538;13.820;2023-02-22T15:18:19;7.00;;;1.77;;
44842;SDS011;31884;52.538;13.820;2023-02-22T15:20:52;14.95;;;2.55;;
44842;SDS011;31884;52.538;13.820;2023-02-22T15:23:23;8.90;;;2.38;;
44842;SDS011;31884;52.538;13.820;2023-02-22T15:25:54;12.57;;;1.77;;
44842;SDS011;31884;52.538;13.820;2023-02-22T15:28:20;7.90;;;2.28;;
44842;SDS011;31884;52.538;13.820;2023-02-22T15:30:48;4.47;;;1.90;;
44842;SDS011;31884;52.538;13.820;2023-02-22T15:33:18;10.43;;;2.53;;
44842;SDS011;31884;52.538;13.820;2023-02-22T15:35:54;11.65;;;2.30;;
44842;SDS011;31884;52.538;13.820;2023-02-22T15:38:25;6.40;;;1.90;;
44842;SDS011;31884;52.538;13.820;2023-02-22T15:40:59;10.35;;;2.72;;
44842;SDS011;31884;52.538;13.820;2023-02-22T15:43:27;7.50;;;1.98;;
44842;SDS011;31884;52.538;13.820;2023-02-22T15:45:54;11.55;;;2.05;;
44842;SDS011;31884;52.538;13.820;2023-02-22T15:48:21;8.05;;;1.88;;
44842;SDS011;31884;52.538;13.820;2023-02-22T15:53:47;14.60;;;2.42;;
44842;SDS011;31884;52.538;13.820;2023-02-22T15:56:18;9.13;;;1.98;;
44842;SDS011;31884;52.538;13.820;2023-02-22T15:58:50;7.72;;;2.60;;
44842;SDS011;31884;52.538;13.820;2023-02-22T16:01:22;9.75;;;2.30;;
44842;SDS011;31884;52.538;13.820;2023-02-22T16:03:52;7.05;;;2.03;;
44842;SDS011;31884;52.538;13.820;2023-02-22T16:06:26;8.40;;;1.90;;
44842;SDS011;31884;52.538;13.820;2023-02-22T16:08:55;13.48;;;2.65;;
44842;SDS011;31884;52.538;13.820;2023-02-22T16:11:34;8.07;;;1.90;;
44842;SDS011;31884;52.538;13.820;2023-02-22T16:17:10;7.80;;;2.30;;
44842;SDS011;31884;52.538;13.820;2023-02-22T16:19:52;7.07;;;2.40;;
44842;SDS011;31884;52.538;13.820;2023-02-22T16:22:22;9.23;;;1.95;;
44842;SDS011;31884;52.538;13.820;2023-02-22T16:24:52;8.80;;;2.55;;
44842;SDS011;31884;52.538;13.820;2023-02-22T16:27:18;6.45;;;2.42;;
44842;SDS011;31884;52.538;13.820;2023-02-22T16:30:02;7.20;;;1.90;;
44842;SDS011;31884;52.538;13.820;2023-02-22T16:32:33;8.30;;;2.22;;
44842;SDS011;31884;52.538;13.820;2023-02-22T16:34:58;5.35;;;1.90;;
44842;SDS011;31884;52.538;13.820;2023-02-22T16:37:24;6.75;;;1.95;;
44842;SDS011;31884;52.538;13.820;2023-02-22T16:39:52;9.60;;;1.88;;
44842;SDS011;31884;52.538;13.820;2023-02-22T16:42:17;9.50;;;2.42;;
44842;SDS011;31884;52.538;13.820;2023-02-22T16:44:50;8.65;;;1.80;;